CYQD

The Pas Airport

The Pas, Manitoba, Canada
TAF AMD CYQD 160524Z 1605/1613 29025G40KT P6SM BKN030 TEMPO 1605/1613 2SM -SN BLSN BKN020 RMK FCST BASED ON AUTO OBS. NXT FCST BY 160700Z
Issued Valid From Valid To
Dec-16 @ 05:24 UTC
(an hour ago)
Dec-16 @ 05:00 UTC
(2 hours ago)
Dec-16 @ 13:00 UTC
(in 6 hours)
Dec-16 @ 05:00 to Dec-16 @ 13:00
TAF AMD CYQD 160524Z 1605/1613 29025G40KT P6SM BKN030
Wind Visibility Clouds
290° at 25 knots
 Gusting to 40 knots
Greater than 6 miles
  • Broken at 3,000' AGL
Temporary Dec-16 @ 05:00 to Dec-16 @ 13:00
TEMPO 1605/1613 2SM -SN BLSN BKN020 RMK FCST BASED ON AUTO OBS. NXT FCST BY 160700Z
Visibility Clouds Conditions
2 miles
  • Broken at 2,000' AGL
  • Light Snow
  • Blowing
  • Snow
TAF AMD CYQD 160524Z 1605/1613 29025G40KT P6SM BKN030 TEMPO 1605/1613 2SM -SN BLSN BKN020 RMK FCST BASED ON AUTO OBS. NXT FCST BY 160700Z
Issued Dec-16 @ 05:24 UTC
(an hour ago)
Valid From Dec-16 @ 05:00 UTC
(2 hours ago)
Valid To Dec-16 @ 13:00 UTC
(in 6 hours)
Dec-16 @ 05:00 - Dec-16 @ 13:00
Wind Visibility
290° at 25 knots
 Gusting to 40 knots
Greater than 6 miles
Clouds
  • Broken at 3,000' AGL
Temporary Dec-16 @ 05:00 - Dec-16 @ 13:00
Clouds
  • Broken at 2,000' AGL
Conditions
  • Light Snow
  • Blowing
  • Snow